Time;durP1;ratioP1;P1;durP2;ratioP2;P2;SDS_P1;SDS_P2;PMS_P1;PMS_P2;Temp;Humidity;BMP_temperature;BMP_pressure;BME280_temperature;BME280_humidity;BME280_pressure;Samples;Min_cycle;Max_cycle;Signal;HPM_P1;HPM_P2
2023/06/16 00:02:13;;;;;;;16.10;14.83;;;16.90;99.90;;;;;;4936967;29;20461;-75
2023/06/16 00:04:40;;;;;;;15.60;14.40;;;16.90;99.90;;;;;;4936627;29;20500;-76
2023/06/16 00:07:09;;;;;;;15.37;14.30;;;16.90;99.90;;;;;;4936557;29;20871;-73
2023/06/16 00:09:36;;;;;;;17.23;15.60;;;16.90;99.90;;;;;;4936502;29;20979;-73
2023/06/16 00:12:03;;;;;;;15.10;14.20;;;16.90;99.90;;;;;;4936454;29;20457;-72
2023/06/16 00:14:30;;;;;;;15.40;14.30;;;16.90;99.90;;;;;;4936585;29;20532;-74
2023/06/16 00:16:57;;;;;;;15.20;14.20;;;16.90;99.90;;;;;;4936633;29;20484;-75
2023/06/16 00:19:29;;;;;;;15.57;14.47;;;16.80;99.90;;;;;;4936512;29;20461;-73
2023/06/16 00:21:59;;;;;;;16.30;15.10;;;16.80;99.90;;;;;;4936538;29;20508;-73
2023/06/16 00:24:27;;;;;;;16.47;15.33;;;16.80;99.90;;;;;;4936281;29;20898;-73
2023/06/16 00:26:55;;;;;;;15.93;14.73;;;16.70;99.90;;;;;;4936236;29;20943;-74
2023/06/16 00:29:21;;;;;;;16.40;15.10;;;16.70;99.90;;;;;;4936243;29;21070;-74
2023/06/16 00:31:48;;;;;;;16.90;14.70;;;16.70;99.90;;;;;;4936159;29;20453;-74
2023/06/16 00:34:15;;;;;;;15.30;14.30;;;16.60;99.90;;;;;;4936091;29;20516;-73
2023/06/16 00:36:41;;;;;;;13.83;13.00;;;16.60;99.90;;;;;;4936168;29;20821;-73
2023/06/16 00:39:09;;;;;;;14.30;13.40;;;16.50;99.90;;;;;;4936067;29;20457;-73
2023/06/16 00:41:37;;;;;;;15.70;14.60;;;16.40;99.90;;;;;;4935986;29;20457;-73
2023/06/16 00:44:04;;;;;;;15.80;14.90;;;16.30;99.90;;;;;;4936042;29;20540;-73
2023/06/16 00:46:35;;;;;;;15.77;14.73;;;16.40;99.90;;;;;;4936218;29;20500;-74
2023/06/16 00:49:03;;;;;;;15.30;14.20;;;16.40;99.90;;;;;;4935937;29;20457;-75
2023/06/16 00:51:31;;;;;;;15.23;14.33;;;16.30;99.90;;;;;;4936061;29;20482;-74
2023/06/16 00:53:58;;;;;;;14.97;14.03;;;16.30;99.90;;;;;;4935836;29;20579;-74
2023/06/16 00:56:26;;;;;;;16.10;15.10;;;16.20;99.90;;;;;;4935705;29;20453;-74
2023/06/16 00:58:55;;;;;;;15.27;14.47;;;16.20;99.90;;;;;;4935754;29;20529;-74
2023/06/16 01:01:24;;;;;;;14.63;13.83;;;16.20;99.90;;;;;;4935735;29;20457;-74
2023/06/16 01:03:53;;;;;;;15.50;14.50;;;16.20;99.90;;;;;;4934651;29;20489;-74
2023/06/16 01:06:32;;;;;;;15.80;14.50;;;16.10;99.90;;;;;;4935501;29;20472;-74
2023/06/16 01:09:05;;;;;;;15.80;14.73;;;16.10;99.90;;;;;;4935757;29;20556;-74
2023/06/16 01:11:37;;;;;;;15.97;14.87;;;16.00;99.90;;;;;;4935466;29;20521;-74
2023/06/16 01:14:14;;;;;;;15.37;14.40;;;16.00;99.90;;;;;;4935225;29;20449;-74
2023/06/16 01:16:43;;;;;;;14.00;13.30;;;15.90;99.90;;;;;;4935507;29;20817;-74
2023/06/16 01:19:19;;;;;;;16.80;15.60;;;15.90;99.90;;;;;;4935288;29;20470;-74
2023/06/16 01:21:53;;;;;;;16.90;15.60;;;15.80;99.90;;;;;;4935382;29;20449;-74
2023/06/16 01:24:24;;;;;;;15.17;14.10;;;15.80;99.90;;;;;;4935160;29;20493;-74
2023/06/16 01:26:54;;;;;;;14.73;13.83;;;15.80;99.90;;;;;;4935267;29;20865;-75
2023/06/16 01:29:22;;;;;;;16.53;15.60;;;15.70;99.90;;;;;;4935572;29;20445;-74
2023/06/16 01:31:52;;;;;;;15.87;14.87;;;15.70;99.90;;;;;;4935155;29;20457;-75
2023/06/16 01:34:20;;;;;;;16.50;15.50;;;15.70;99.90;;;;;;4935035;29;20642;-74
2023/06/16 01:36:48;;;;;;;15.77;14.67;;;15.70;99.90;;;;;;4935130;29;20544;-74
2023/06/16 01:39:17;;;;;;;14.87;13.87;;;15.60;99.90;;;;;;4935248;29;20825;-74
2023/06/16 01:41:45;;;;;;;15.40;14.50;;;15.50;99.90;;;;;;4935103;29;20461;-74
2023/06/16 01:44:13;;;;;;;14.77;13.77;;;15.50;99.90;;;;;;4934949;29;20528;-74
2023/06/16 01:46:42;;;;;;;15.70;14.60;;;15.50;99.90;;;;;;4934723;29;20841;-74
2023/06/16 01:49:09;;;;;;;14.67;13.87;;;15.50;99.90;;;;;;4934795;29;20454;-74
2023/06/16 01:51:36;;;;;;;14.50;13.60;;;15.40;99.90;;;;;;4934687;29;21222;-74
2023/06/16 01:54:03;;;;;;;14.77;13.60;;;15.40;99.90;;;;;;4934560;29;20603;-74
2023/06/16 01:56:30;;;;;;;15.47;14.57;;;15.30;99.90;;;;;;4934663;29;20458;-75
2023/06/16 01:58:58;;;;;;;16.23;15.20;;;15.40;99.90;;;;;;4934610;29;20569;-75
2023/06/16 02:01:28;;;;;;;14.60;13.80;;;15.30;99.90;;;;;;4934567;29;20457;-75
2023/06/16 02:03:59;;;;;;;15.13;14.23;;;15.30;99.90;;;;;;4934574;29;20490;-74
2023/06/16 02:06:28;;;;;;;15.77;14.87;;;15.30;99.90;;;;;;4934569;29;20513;-75
2023/06/16 02:08:57;;;;;;;15.90;14.80;;;15.30;99.90;;;;;;4934562;29;20803;-75
2023/06/16 02:11:25;;;;;;;16.20;15.20;;;15.20;99.90;;;;;;4934409;29;20453;-75
2023/06/16 02:13:52;;;;;;;16.90;15.90;;;15.20;99.90;;;;;;4934289;29;20450;-74
2023/06/16 02:16:20;;;;;;;17.40;16.10;;;15.20;99.90;;;;;;4934203;29;20453;-75
2023/06/16 02:18:49;;;;;;;16.83;15.33;;;15.20;99.90;;;;;;4934006;29;20495;-75
2023/06/16 02:21:16;;;;;;;17.13;15.67;;;15.20;99.90;;;;;;4934259;29;20461;-75
2023/06/16 02:23:42;;;;;;;15.60;14.70;;;15.20;99.90;;;;;;4934206;29;20519;-75
2023/06/16 02:26:09;;;;;;;16.10;14.73;;;15.10;99.90;;;;;;4933975;29;20947;-75
2023/06/16 02:28:36;;;;;;;17.07;15.87;;;15.10;99.90;;;;;;4934080;29;20464;-75
2023/06/16 02:31:02;;;;;;;15.97;14.93;;;15.10;99.90;;;;;;4934104;29;20454;-73
2023/06/16 02:33:31;;;;;;;16.10;15.20;;;15.10;99.90;;;;;;4934059;29;20513;-73
2023/06/16 02:35:58;;;;;;;16.13;14.80;;;15.00;99.90;;;;;;4934057;29;20817;-73
2023/06/16 02:38:24;;;;;;;16.10;14.97;;;15.00;99.90;;;;;;4934011;29;20504;-74
2023/06/16 02:40:51;;;;;;;16.27;15.17;;;15.10;99.90;;;;;;4933747;29;20457;-74
2023/06/16 02:43:18;;;;;;;17.10;16.00;;;15.00;99.90;;;;;;4933950;29;20513;-74
2023/06/16 02:45:45;;;;;;;15.63;14.63;;;15.00;99.90;;;;;;4933858;29;20461;-74
2023/06/16 02:48:12;;;;;;;17.90;16.90;;;15.00;99.90;;;;;;4933731;29;20472;-74
2023/06/16 02:50:40;;;;;;;16.27;15.27;;;14.90;99.90;;;;;;4933709;29;20449;-74
2023/06/16 02:53:07;;;;;;;16.57;15.43;;;15.00;99.90;;;;;;4933872;29;20587;-74
2023/06/16 02:55:33;;;;;;;19.40;18.07;;;15.00;99.90;;;;;;4936415;29;20437;-74
2023/06/16 02:58:00;;;;;;;19.17;16.90;;;14.90;99.90;;;;;;4935005;29;20489;-73
2023/06/16 03:00:27;;;;;;;18.60;17.00;;;15.00;99.90;;;;;;4934389;29;20890;-72
2023/06/16 03:02:53;;;;;;;15.40;14.60;;;15.00;99.90;;;;;;4934342;29;20453;-73
2023/06/16 03:05:20;;;;;;;16.07;15.07;;;15.00;99.90;;;;;;4934479;29;20553;-73
2023/06/16 03:07:49;;;;;;;16.10;15.10;;;15.00;99.90;;;;;;4933757;29;20986;-73
2023/06/16 03:10:15;;;;;;;19.10;17.70;;;15.00;99.90;;;;;;4933651;29;20453;-72
2023/06/16 03:12:42;;;;;;;17.90;16.80;;;15.00;99.90;;;;;;4933505;29;21051;-73
2023/06/16 03:15:09;;;;;;;16.10;15.10;;;15.00;99.90;;;;;;4933424;29;20450;-73
2023/06/16 03:17:36;;;;;;;16.37;15.33;;;15.00;99.90;;;;;;4933342;29;20492;-74
2023/06/16 03:20:04;;;;;;;17.63;16.43;;;15.00;99.90;;;;;;4933532;29;20464;-74
2023/06/16 03:22:30;;;;;;;17.83;16.63;;;14.90;99.90;;;;;;4933300;29;20465;-74
2023/06/16 03:25:02;;;;;;;18.73;17.37;;;14.90;99.90;;;;;;4924259;29;20490;-72
2023/06/16 03:27:29;;;;;;;18.27;17.00;;;15.00;99.90;;;;;;4914156;29;20474;-75
2023/06/16 03:29:56;;;;;;;16.77;15.77;;;15.00;99.90;;;;;;4914644;29;20466;-74
2023/06/16 03:32:22;;;;;;;17.40;16.00;;;15.10;99.90;;;;;;4914338;29;20458;-73
2023/06/16 03:34:49;;;;;;;17.80;16.70;;;15.10;99.90;;;;;;4914370;29;20912;-74
2023/06/16 03:37:16;;;;;;;18.37;16.87;;;15.10;99.90;;;;;;4914563;29;20521;-74
2023/06/16 03:39:43;;;;;;;16.63;15.60;;;15.10;99.90;;;;;;4914419;29;20451;-74
2023/06/16 03:42:11;;;;;;;16.90;15.80;;;15.10;99.90;;;;;;4914205;29;20458;-74
2023/06/16 03:44:38;;;;;;;16.73;15.73;;;15.10;99.90;;;;;;4914428;29;20497;-74
2023/06/16 03:47:06;;;;;;;19.00;17.60;;;15.20;99.90;;;;;;4914298;29;20820;-75
2023/06/16 03:49:32;;;;;;;17.37;16.37;;;15.10;99.90;;;;;;4914194;29;20458;-74
2023/06/16 03:51:59;;;;;;;17.00;16.00;;;15.10;99.90;;;;;;4914147;29;20478;-74
2023/06/16 03:54:27;;;;;;;18.30;17.00;;;15.10;99.90;;;;;;4913901;29;20512;-77
2023/06/16 03:56:53;;;;;;;18.03;16.73;;;15.00;99.90;;;;;;4913944;29;20542;-76
2023/06/16 03:59:21;;;;;;;17.80;16.10;;;15.00;99.90;;;;;;4914105;29;20454;-75
2023/06/16 04:01:51;;;;;;;19.00;17.80;;;15.00;99.90;;;;;;4913987;29;20458;-75
2023/06/16 04:04:18;;;;;;;18.50;17.20;;;15.00;99.90;;;;;;4913745;29;20526;-74
2023/06/16 04:06:44;;;;;;;19.27;17.87;;;15.10;99.90;;;;;;4914023;29;20459;-74
2023/06/16 04:09:11;;;;;;;20.03;18.50;;;15.10;99.90;;;;;;4913801;29;20462;-74
2023/06/16 04:11:40;;;;;;;18.70;17.47;;;15.10;99.90;;;;;;4913562;29;20446;-75
2023/06/16 04:14:09;;;;;;;19.80;18.40;;;15.20;99.90;;;;;;4913528;29;20558;-76
2023/06/16 04:16:37;;;;;;;20.10;18.70;;;15.20;99.90;;;;;;4913489;29;20444;-75
2023/06/16 04:19:06;;;;;;;21.80;20.10;;;15.20;99.90;;;;;;4913366;29;20533;-76
2023/06/16 04:21:33;;;;;;;19.20;18.10;;;15.20;99.90;;;;;;4913488;29;20509;-74
2023/06/16 04:24:00;;;;;;;24.23;19.03;;;15.40;99.90;;;;;;4913860;29;20458;-75
2023/06/16 04:26:28;;;;;;;19.73;18.50;;;15.70;99.90;;;;;;4913243;29;20506;-75
2023/06/16 04:28:55;;;;;;;19.40;17.77;;;16.00;99.90;;;;;;4913352;29;20537;-75
2023/06/16 04:31:22;;;;;;;18.00;16.47;;;16.30;99.90;;;;;;4913253;29;20501;-75
2023/06/16 04:33:51;;;;;;;18.60;17.07;;;16.40;99.90;;;;;;4913235;29;20454;-75
2023/06/16 04:36:19;;;;;;;17.40;16.40;;;16.70;99.90;;;;;;4913096;29;20845;-75
2023/06/16 04:38:46;;;;;;;15.47;14.57;;;16.80;99.90;;;;;;4914068;29;20454;-75
2023/06/16 04:41:12;;;;;;;16.40;15.30;;;16.90;99.90;;;;;;4917157;29;20466;-76
2023/06/16 04:43:39;;;;;;;17.47;16.57;;;17.00;99.90;;;;;;4917173;29;20465;-76
2023/06/16 04:46:06;;;;;;;16.20;15.30;;;17.30;99.90;;;;;;4917139;29;20494;-75
2023/06/16 04:48:33;;;;;;;17.33;15.83;;;17.60;99.90;;;;;;4916910;29;20458;-75
2023/06/16 04:51:01;;;;;;;17.57;16.00;;;17.50;99.90;;;;;;4917005;29;20512;-76
2023/06/16 04:53:28;;;;;;;16.43;15.47;;;17.60;99.90;;;;;;4916855;29;20857;-75
2023/06/16 04:55:55;;;;;;;17.70;16.43;;;17.80;99.90;;;;;;4916957;29;20458;-75
2023/06/16 04:58:22;;;;;;;16.67;15.53;;;17.90;99.90;;;;;;4916759;29;20461;-74
2023/06/16 05:00:49;;;;;;;17.87;16.87;;;17.90;99.90;;;;;;4917086;29;20454;-76
2023/06/16 05:03:17;;;;;;;17.07;15.80;;;17.80;99.90;;;;;;4917406;29;20481;-75
2023/06/16 05:05:44;;;;;;;17.43;16.33;;;17.80;99.90;;;;;;4916752;29;21110;-75
2023/06/16 05:08:12;;;;;;;17.17;16.17;;;17.80;99.90;;;;;;4917170;29;20486;-76
2023/06/16 05:10:40;;;;;;;17.63;15.80;;;17.90;99.90;;;;;;4916996;29;20893;-76
2023/06/16 05:13:06;;;;;;;16.80;15.70;;;18.10;99.90;;;;;;4917001;29;20490;-75
2023/06/16 05:15:33;;;;;;;17.20;16.00;;;17.90;99.90;;;;;;4916685;29;20447;-76
2023/06/16 05:18:00;;;;;;;18.07;16.80;;;18.00;99.90;;;;;;4916777;29;20454;-76
2023/06/16 05:20:26;;;;;;;15.50;14.70;;;18.40;99.90;;;;;;4916589;29;20461;-76
2023/06/16 05:22:53;;;;;;;17.13;16.03;;;18.50;99.90;;;;;;4916731;29;20454;-77
2023/06/16 05:25:21;;;;;;;17.97;16.83;;;18.60;99.90;;;;;;4916565;29;20501;-75
2023/06/16 05:27:48;;;;;;;17.13;15.93;;;18.90;99.90;;;;;;4916489;29;20458;-75
2023/06/16 05:30:15;;;;;;;17.47;16.17;;;19.00;99.90;;;;;;4916784;29;20458;-76
2023/06/16 05:32:42;;;;;;;17.83;16.63;;;19.30;99.00;;;;;;4916598;29;20462;-76
2023/06/16 05:35:09;;;;;;;19.33;17.90;;;19.40;98.60;;;;;;4916338;29;20454;-75
2023/06/16 05:37:36;;;;;;;18.03;16.83;;;19.60;98.20;;;;;;4916262;29;20973;-76
2023/06/16 05:40:03;;;;;;;16.07;15.27;;;19.90;97.60;;;;;;4916183;29;20466;-76
2023/06/16 05:42:31;;;;;;;16.20;15.23;;;20.20;97.00;;;;;;4916206;29;20968;-75
2023/06/16 05:44:57;;;;;;;16.87;15.97;;;20.40;96.40;;;;;;4916039;29;20549;-74
2023/06/16 05:47:24;;;;;;;18.13;17.13;;;20.70;95.90;;;;;;4915851;29;20458;-74
2023/06/16 05:49:51;;;;;;;17.03;16.03;;;20.90;95.20;;;;;;4915699;29;20454;-75
2023/06/16 05:52:17;;;;;;;17.40;16.40;;;20.80;94.90;;;;;;4916020;29;20479;-75
2023/06/16 05:54:44;;;;;;;18.53;17.30;;;21.00;94.80;;;;;;4915505;29;20492;-75
2023/06/16 05:57:11;;;;;;;18.40;17.30;;;21.30;94.20;;;;;;4915765;29;20526;-75
2023/06/16 05:59:39;;;;;;;17.10;16.20;;;21.40;93.70;;;;;;4915985;29;20525;-74
2023/06/16 06:02:06;;;;;;;16.93;16.03;;;21.80;93.30;;;;;;4915732;29;20461;-75
2023/06/16 06:04:34;;;;;;;17.90;17.00;;;21.70;92.80;;;;;;4915557;29;20494;-75
2023/06/16 06:07:01;;;;;;;17.00;16.10;;;21.70;92.80;;;;;;4915902;29;20953;-76
2023/06/16 06:09:28;;;;;;;17.33;16.33;;;21.50;92.90;;;;;;4915650;29;20458;-77
2023/06/16 06:11:54;;;;;;;17.40;16.40;;;21.30;93.30;;;;;;4915487;29;20458;-77
2023/06/16 06:14:21;;;;;;;16.73;15.83;;;21.40;93.00;;;;;;4926121;29;20888;-77
2023/06/16 06:16:50;;;;;;;18.10;17.00;;;21.40;93.30;;;;;;4934471;29;20877;-76
2023/06/16 06:19:16;;;;;;;17.43;16.33;;;21.60;93.00;;;;;;4934449;29;20528;-74
2023/06/16 06:21:43;;;;;;;17.90;17.10;;;21.80;92.70;;;;;;4934547;29;20520;-74
2023/06/16 06:24:10;;;;;;;19.27;17.90;;;22.50;91.70;;;;;;4934420;29;20450;-74
2023/06/16 06:26:38;;;;;;;19.20;17.97;;;22.50;91.30;;;;;;4932445;29;21034;-77
2023/06/16 06:29:05;;;;;;;18.20;17.10;;;22.70;90.80;;;;;;4933646;29;20552;-77
2023/06/16 06:31:31;;;;;;;18.30;17.20;;;22.70;90.60;;;;;;4934354;29;20457;-75
2023/06/16 06:33:59;;;;;;;19.30;18.10;;;22.60;91.00;;;;;;4924048;29;20733;-76
2023/06/16 06:36:28;;;;;;;18.03;17.03;;;23.10;90.30;;;;;;4915222;29;20454;-75
2023/06/16 06:38:54;;;;;;;18.67;17.47;;;23.40;89.90;;;;;;4915153;29;20458;-76
2023/06/16 06:41:23;;;;;;;19.23;17.93;;;23.60;88.60;;;;;;4920433;29;20482;-77
2023/06/16 06:43:49;;;;;;;18.20;17.00;;;23.80;87.10;;;;;;4927838;29;20461;-78
2023/06/16 06:46:17;;;;;;;17.70;16.80;;;24.40;86.30;;;;;;4920144;29;20502;-77
2023/06/16 06:48:44;;;;;;;19.13;17.73;;;24.70;83.30;;;;;;4921047;29;20489;-76
2023/06/16 06:51:13;;;;;;;17.63;16.63;;;25.00;82.10;;;;;;4918559;29;20454;-75
2023/06/16 06:53:40;;;;;;;17.73;16.57;;;24.80;81.70;;;;;;4921666;29;20545;-77
2023/06/16 06:56:07;;;;;;;18.03;17.03;;;25.10;81.30;;;;;;4920092;29;20561;-77
2023/06/16 06:58:34;;;;;;;17.50;16.50;;;25.60;79.30;;;;;;4915536;29;20481;-77
2023/06/16 07:01:00;;;;;;;18.07;17.07;;;25.70;78.00;;;;;;4914266;29;20549;-76
2023/06/16 07:03:27;;;;;;;17.30;16.20;;;25.90;76.40;;;;;;4913919;29;20833;-77
2023/06/16 07:05:54;;;;;;;17.67;16.77;;;26.10;76.30;;;;;;4913446;29;20934;-77
2023/06/16 07:08:22;;;;;;;17.77;16.80;;;26.40;74.30;;;;;;4913768;29;20466;-75
2023/06/16 07:10:49;;;;;;;17.63;16.73;;;26.90;72.50;;;;;;4913451;29;20466;-76
2023/06/16 07:13:16;;;;;;;17.33;16.53;;;27.20;71.30;;;;;;4913319;29;20469;-76
2023/06/16 07:15:43;;;;;;;17.47;16.57;;;27.70;69.60;;;;;;4913804;29;20556;-78
2023/06/16 07:18:09;;;;;;;18.73;17.20;;;28.70;65.70;;;;;;4913573;29;20474;-84
2023/06/16 07:20:36;;;;;;;16.87;16.00;;;29.00;63.90;;;;;;4913501;29;20906;-75
2023/06/16 07:23:03;;;;;;;18.13;17.00;;;29.40;62.20;;;;;;4913539;29;20970;-77
2023/06/16 07:25:32;;;;;;;17.97;17.17;;;29.80;60.70;;;;;;4913138;29;20904;-75
2023/06/16 07:27:59;;;;;;;18.33;17.17;;;29.80;59.70;;;;;;4913208;29;20461;-76
2023/06/16 07:30:26;;;;;;;18.07;17.17;;;30.00;58.70;;;;;;4913186;29;20446;-75
2023/06/16 07:32:52;;;;;;;18.60;17.20;;;30.30;58.00;;;;;;4913112;29;20458;-74
2023/06/16 07:35:19;;;;;;;18.20;17.33;;;30.90;56.80;;;;;;4913276;29;20506;-75
2023/06/16 07:37:46;;;;;;;18.77;17.90;;;30.70;56.50;;;;;;4913354;29;20481;-74
2023/06/16 07:40:14;;;;;;;19.97;18.80;;;31.40;54.30;;;;;;4913355;29;20454;-75
2023/06/16 07:42:42;;;;;;;18.23;17.33;;;32.00;52.60;;;;;;4913203;29;20542;-75
2023/06/16 07:45:10;;;;;;;18.80;17.67;;;32.50;51.80;;;;;;4912848;29;20615;-75
2023/06/16 07:47:36;;;;;;;21.00;19.87;;;32.60;50.80;;;;;;4912986;29;20530;-76
2023/06/16 07:50:04;;;;;;;19.80;18.87;;;33.00;49.50;;;;;;4912944;29;20964;-76
2023/06/16 07:52:30;;;;;;;21.00;19.87;;;33.50;48.30;;;;;;4912950;29;20480;-77
2023/06/16 07:54:57;;;;;;;19.77;18.77;;;32.80;48.10;;;;;;4913187;29;20470;-77
2023/06/16 07:57:24;;;;;;;20.63;19.03;;;33.10;47.90;;;;;;4913069;29;20458;-76
2023/06/16 07:59:53;;;;;;;20.43;19.33;;;33.00;47.50;;;;;;4915051;29;20813;-75
2023/06/16 08:02:20;;;;;;;20.90;19.30;;;32.70;46.30;;;;;;4912032;29;20454;-76
2023/06/16 08:04:47;;;;;;;20.67;19.37;;;33.00;46.50;;;;;;4913324;29;20450;-75
2023/06/16 08:07:13;;;;;;;21.17;20.03;;;32.80;46.20;;;;;;4913330;29;20498;-76
2023/06/16 08:09:40;;;;;;;21.13;20.23;;;32.80;47.00;;;;;;4913271;29;20458;-76
2023/06/16 08:12:09;;;;;;;20.83;19.27;;;33.00;46.30;;;;;;4913272;29;20446;-76
2023/06/16 08:14:36;;;;;;;21.40;20.17;;;33.00;46.50;;;;;;4916523;29;20454;-76
2023/06/16 08:17:04;;;;;;;21.73;20.53;;;33.10;46.20;;;;;;4916633;29;20450;-77
2023/06/16 08:19:31;;;;;;;22.23;20.90;;;33.00;45.40;;;;;;4916930;29;20462;-77
2023/06/16 08:21:58;;;;;;;20.67;19.57;;;33.80;43.70;;;;;;4916583;29;20458;-76
2023/06/16 08:24:25;;;;;;;20.53;19.43;;;33.50;43.40;;;;;;4916492;29;20529;-76
2023/06/16 08:26:52;;;;;;;19.90;19.00;;;34.10;41.70;;;;;;4916120;29;20513;-76
2023/06/16 08:29:19;;;;;;;20.47;19.27;;;34.00;40.00;;;;;;4916660;29;20457;-76
2023/06/16 08:31:46;;;;;;;20.63;19.37;;;34.50;41.20;;;;;;4916597;29;20904;-76
2023/06/16 08:34:14;;;;;;;19.97;18.90;;;34.10;40.40;;;;;;4916788;29;20458;-76
2023/06/16 08:36:41;;;;;;;19.27;18.30;;;34.20;40.20;;;;;;4916821;29;20450;-76
2023/06/16 08:39:09;;;;;;;19.80;18.50;;;34.80;39.60;;;;;;4916530;29;20454;-76
2023/06/16 08:41:37;;;;;;;19.60;18.60;;;34.80;38.70;;;;;;4916152;29;20458;-75
2023/06/16 08:44:06;;;;;;;20.83;19.50;;;35.40;37.70;;;;;;4916159;29;20462;-76
2023/06/16 08:46:33;;;;;;;20.20;19.10;;;35.40;38.30;;;;;;4916016;29;20882;-75
2023/06/16 08:49:00;;;;;;;20.07;19.07;;;35.50;37.60;;;;;;4916332;29;20463;-76
2023/06/16 08:51:28;;;;;;;18.53;17.63;;;35.30;36.60;;;;;;4915966;29;20976;-76
2023/06/16 08:54:00;;;;;;;19.07;18.17;;;35.00;34.90;;;;;;4915687;29;20489;-76
2023/06/16 08:56:29;;;;;;;18.80;17.80;;;35.30;32.10;;;;;;4916157;29;20454;-76
2023/06/16 08:58:57;;;;;;;17.57;16.80;;;34.70;31.90;;;;;;4915850;29;20539;-77
2023/06/16 09:01:25;;;;;;;18.70;17.80;;;33.80;32.20;;;;;;4915781;29;20930;-78
2023/06/16 09:03:54;;;;;;;17.50;16.80;;;33.90;33.80;;;;;;4916177;29;20466;-76
2023/06/16 09:06:20;;;;;;;18.30;17.60;;;33.70;31.90;;;;;;4915707;29;20565;-76
2023/06/16 09:08:48;;;;;;;18.67;17.50;;;33.40;32.60;;;;;;4916052;29;20454;-77
2023/06/16 09:11:22;;;;;;;18.33;17.47;;;33.70;33.40;;;;;;4914651;29;20521;-77
2023/06/16 09:13:49;;;;;;;18.10;17.40;;;33.50;33.50;;;;;;4915521;29;20531;-76
2023/06/16 09:16:17;;;;;;;19.40;18.50;;;33.60;33.80;;;;;;4915906;29;20510;-76
2023/06/16 09:18:44;;;;;;;18.07;17.17;;;32.50;33.90;;;;;;4915928;29;20547;-77
2023/06/16 09:21:11;;;;;;;16.83;16.00;;;32.30;34.50;;;;;;4915541;29;20454;-77
2023/06/16 09:23:39;;;;;;;16.93;16.23;;;32.40;34.50;;;;;;4915397;29;20463;-78
2023/06/16 09:26:12;;;;;;;18.90;18.00;;;32.60;33.90;;;;;;4914940;29;20533;-77
2023/06/16 09:28:39;;;;;;;19.53;18.53;;;33.30;33.70;;;;;;4915320;29;20913;-77
2023/06/16 09:31:07;;;;;;;17.43;16.63;;;33.70;33.20;;;;;;4915365;29;21005;-78
2023/06/16 09:33:34;;;;;;;17.77;16.87;;;34.10;32.70;;;;;;4915133;29;21113;-76
2023/06/16 09:36:01;;;;;;;17.53;16.63;;;34.30;32.20;;;;;;4915205;29;20553;-77
2023/06/16 09:38:35;;;;;;;18.43;17.53;;;34.30;31.90;;;;;;4915392;29;20446;-77
2023/06/16 09:41:09;;;;;;;16.93;16.20;;;34.20;32.60;;;;;;4915097;29;20470;-76
2023/06/16 09:43:38;;;;;;;18.07;17.37;;;35.00;31.70;;;;;;4914979;29;20464;-75
2023/06/16 09:46:09;;;;;;;18.43;17.53;;;35.70;31.20;;;;;;4915002;29;20526;-77
2023/06/16 09:48:44;;;;;;;19.07;17.83;;;36.10;30.90;;;;;;4915219;29;20450;-76
2023/06/16 09:51:11;;;;;;;16.77;16.00;;;35.20;30.00;;;;;;4915177;29;20458;-77
2023/06/16 09:53:39;;;;;;;18.00;17.30;;;35.70;30.50;;;;;;4914873;29;20549;-77
2023/06/16 09:56:06;;;;;;;17.50;16.80;;;35.80;30.00;;;;;;4914936;29;20756;-77
2023/06/16 09:58:33;;;;;;;17.73;16.83;;;36.00;30.10;;;;;;4914756;29;20459;-76
2023/06/16 10:01:02;;;;;;;16.40;15.60;;;35.60;30.00;;;;;;4914830;29;20451;-77
2023/06/16 10:03:31;;;;;;;17.60;16.80;;;35.40;30.10;;;;;;4914625;29;20511;-77
2023/06/16 10:06:04;;;;;;;19.47;18.57;;;35.70;30.00;;;;;;4914398;29;20486;-77
2023/06/16 10:08:31;;;;;;;18.60;17.80;;;36.00;29.60;;;;;;4914713;29;20458;-77
2023/06/16 10:10:58;;;;;;;18.90;17.90;;;36.70;29.30;;;;;;4914762;29;20451;-77
2023/06/16 10:13:28;;;;;;;18.73;17.70;;;36.80;29.00;;;;;;4915026;29;20458;-77
2023/06/16 10:15:56;;;;;;;18.03;16.87;;;36.70;29.40;;;;;;4914934;29;20542;-76
2023/06/16 10:18:25;;;;;;;17.30;16.50;;;36.90;28.70;;;;;;4914966;29;20486;-76
2023/06/16 10:20:52;;;;;;;18.23;17.43;;;37.40;28.70;;;;;;4914712;29;20953;-76
2023/06/16 10:23:19;;;;;;;18.60;17.60;;;38.40;28.20;;;;;;4914551;29;20573;-77
2023/06/16 10:25:46;;;;;;;18.50;17.70;;;38.00;28.40;;;;;;4914666;29;20464;-76
2023/06/16 10:28:14;;;;;;;18.97;17.93;;;38.60;27.90;;;;;;4914601;29;20500;-78
2023/06/16 10:30:42;;;;;;;18.93;17.60;;;37.30;28.30;;;;;;4914283;29;21035;-78
2023/06/16 10:33:17;;;;;;;18.63;17.83;;;36.70;28.90;;;;;;4914014;29;20454;-77
2023/06/16 10:35:51;;;;;;;19.27;18.37;;;35.00;30.20;;;;;;4914481;29;20486;-76
2023/06/16 10:38:18;;;;;;;18.47;17.47;;;33.40;32.50;;;;;;4913874;29;20466;-78
2023/06/16 10:40:45;;;;;;;17.17;16.47;;;32.00;34.10;;;;;;4914492;29;21272;-77
2023/06/16 10:43:24;;;;;;;16.57;15.87;;;31.50;35.10;;;;;;4914705;29;20477;-77
2023/06/16 10:45:51;;;;;;;17.50;16.50;;;30.90;36.40;;;;;;4914253;29;20469;-78
2023/06/16 10:48:17;;;;;;;17.20;16.40;;;31.00;37.20;;;;;;4914376;29;20458;-78
2023/06/16 10:50:44;;;;;;;17.90;17.10;;;31.40;35.90;;;;;;4914327;29;20458;-78
2023/06/16 10:53:14;;;;;;;18.13;17.23;;;32.70;34.40;;;;;;4913969;29;20494;-77
2023/06/16 10:55:42;;;;;;;18.53;17.63;;;34.40;32.50;;;;;;4914011;29;20466;-78
2023/06/16 10:58:36;;;;;;;18.20;17.30;;;34.20;30.60;;;;;;4914161;29;20461;-78
2023/06/16 11:01:22;;;;;;;16.10;15.40;;;32.90;31.10;;;;;;4880239;29;20832;-78
2023/06/16 11:03:59;;;;;;;19.13;18.00;;;33.50;31.20;;;;;;4913935;29;20532;-78
2023/06/16 11:06:26;;;;;;;17.67;16.87;;;34.60;30.10;;;;;;4913808;29;21065;-77
2023/06/16 11:08:55;;;;;;;17.93;17.00;;;35.40;29.40;;;;;;4913700;29;20465;-77
2023/06/16 11:11:22;;;;;;;16.70;15.93;;;36.10;29.30;;;;;;4914200;29;20520;-76
2023/06/16 11:13:49;;;;;;;17.67;16.87;;;36.90;29.00;;;;;;4914111;29;20987;-75
2023/06/16 11:16:16;;;;;;;17.90;17.03;;;36.30;28.20;;;;;;4914094;29;20904;-76
2023/06/16 11:18:43;;;;;;;17.93;17.03;;;36.40;28.40;;;;;;4913989;29;20545;-75
2023/06/16 11:21:10;;;;;;;18.30;17.40;;;36.10;28.70;;;;;;4913678;29;20465;-75
2023/06/16 11:23:37;;;;;;;17.53;16.63;;;35.70;28.80;;;;;;4913395;29;20477;-76
2023/06/16 11:26:07;;;;;;;18.53;17.40;;;35.30;29.60;;;;;;4913117;29;20451;-75
2023/06/16 11:28:35;;;;;;;17.23;16.33;;;34.30;29.00;;;;;;4910702;29;20529;-75
2023/06/16 11:31:02;;;;;;;19.20;18.20;;;34.10;29.80;;;;;;4913290;29;20451;-76
2023/06/16 11:33:32;;;;;;;18.23;17.47;;;34.20;30.10;;;;;;4913473;29;20550;-75
2023/06/16 11:36:13;;;;;;;18.73;17.93;;;34.40;29.30;;;;;;4913849;29;20509;-76
2023/06/16 11:38:42;;;;;;;20.37;19.37;;;34.70;29.20;;;;;;4913737;29;20540;-74
2023/06/16 11:41:16;;;;;;;17.67;16.73;;;34.90;29.20;;;;;;4913499;29;20972;-76
2023/06/16 11:43:43;;;;;;;17.87;16.90;;;34.60;29.40;;;;;;4913621;29;20462;-74
2023/06/16 11:46:10;;;;;;;18.03;17.07;;;35.00;28.90;;;;;;4913365;29;20541;-77
2023/06/16 11:48:38;;;;;;;19.20;18.23;;;35.30;28.50;;;;;;4915906;29;20467;-75
2023/06/16 11:51:05;;;;;;;18.37;17.60;;;35.70;28.40;;;;;;4917060;29;20932;-75
2023/06/16 11:53:32;;;;;;;19.83;18.43;;;35.30;27.90;;;;;;4916966;29;20573;-76
2023/06/16 11:55:59;;;;;;;19.07;18.20;;;35.40;28.00;;;;;;4917298;29;20450;-76
2023/06/16 11:58:28;;;;;;;19.63;18.53;;;34.90;29.00;;;;;;4917297;29;20854;-77
2023/06/16 12:00:59;;;;;;;17.27;16.47;;;34.80;29.30;;;;;;4917060;29;20879;-76
2023/06/16 12:03:27;;;;;;;17.23;16.20;;;35.00;29.20;;;;;;4917325;29;20460;-77
2023/06/16 12:05:54;;;;;;;17.73;16.90;;;35.60;28.80;;;;;;4917060;29;21004;-76
2023/06/16 12:08:36;;;;;;;19.20;18.20;;;36.00;28.30;;;;;;4917056;29;20573;-76
2023/06/16 12:11:03;;;;;;;17.57;16.83;;;35.30;28.30;;;;;;4917294;29;20512;-76
2023/06/16 12:13:33;;;;;;;17.87;17.07;;;35.10;28.50;;;;;;4920829;29;20460;-76
2023/06/16 12:16:01;;;;;;;17.60;16.80;;;35.70;27.90;;;;;;4936707;29;20556;-76
2023/06/16 12:18:27;;;;;;;17.20;16.20;;;36.20;27.50;;;;;;4936302;29;20472;-75
2023/06/16 12:20:54;;;;;;;18.20;17.20;;;35.20;27.20;;;;;;4935911;29;20461;-76
2023/06/16 12:23:21;;;;;;;17.77;16.97;;;34.90;28.50;;;;;;4935902;29;20512;-75
2023/06/16 12:25:48;;;;;;;18.23;17.33;;;34.80;28.40;;;;;;4935783;29;20460;-75
2023/06/16 12:28:20;;;;;;;17.20;16.43;;;34.50;27.10;;;;;;4936122;29;20608;-76
2023/06/16 12:30:48;;;;;;;19.30;18.07;;;33.80;27.40;;;;;;4935880;29;20465;-77
2023/06/16 12:33:15;;;;;;;18.07;17.10;;;33.90;28.70;;;;;;4935680;29;20457;-75